Flugplatz Schwandorf

Für EDPF sind keine METAR/TAF Berichte vorhanden.
Es werden die Flugwettermeldungen vom Flugplatz Hohenfels Army Air Field in 28 km Entfernung angezeigt.

Bericht für ETIH

vom 20.10. um 18:56 UTC

kein Wind

Sichtweite 10 km oder mehr

keine Wolken

Temperatur 10.2°C

Taupunkt 10.2°C

Luftfeuchtigkeit 100%

Luftdruck 1012 hPa

ETIH 201856Z AUTO 00000KT 9999 CLR 10/10 A2987 RMK AO2 SLP122 T01020102
Keine Prognose (TAF) verfügbar.
Impressum